Redmond, OR

3:56 PM PDT on August 30, 2015 (GMT -0700)
Roberts Field Airport | | Change Station
CLOSE
Current Station
Airport
Location: Redmond,
Elevation: 3077 ft
Nearby Weather Stations

Elev 3077 ft 44.25 °N, 121.15 °W | Updated 1 hour ago

Overcast
Overcast
63 °F
Feels Like 63 °F
N
0
Wind Variable Wind from North

Today
High -- | Low -- °F
--% Chance of Precip.
Yesterday
High -- | Low -- °F
Precip. -- in
6:25 AM 7:44 PM
Full, 98% visible
Pressure 30.00 in
Visibility 10.0 miles
Clouds Few 4300 ft
Mostly Cloudy 5500 ft
Overcast 7000 ft
Dew Point 44 °F
Humidity 50%
Rainfall 0.01 in
Snow Depth Not available.
UV 2 out of 12
Pollen .50 out of 12
Air Quality Not available.
Flu Activity Not available.
METAR KRDM 302156Z 00000KT 10SM FEW043 BKN055 OVC070 17/07 A3004 RMK AO2 SLP158 T01720067
Pressure 30.00 in
Visibility 10.0 miles
Clouds Few 4300 ft
Mostly Cloudy 5500 ft
Overcast 7000 ft
Dew Point 44 °F
Humidity 50%
Rainfall 0.01 in
Snow Depth Not available.
UV 2 out of 12
Pollen .50 out of 12
Air Quality Not available.
Flu Activity Not available.
METAR KRDM 302156Z 00000KT 10SM FEW043 BKN055 OVC070 17/07 A3004 RMK AO2 SLP158 T01720067

10-Day Weather Forecast

×

Almanac

Astronomy

Aug. 30, 2015 Rise Set
Actual Time
Civil Twilight
Nautical Twilight
Astronomical Twilight
Moon
Length of Visible Light
Length of Day
Tomorrow will be .
, % of the Moon is Illuminated

Today's Extremes

State Highs State Lows

Community

WunderPhotos

Upload Photos

1,851,075 photos uploaded!

WunderBlogs® & News

Nearby

Air Quality

  Air Quality AQ Index Pollutant
Not available.

Snow Depth

Station Depth Elevation

Earthquake Activity

City Distance Mag. Time & Date
Minimum magnitude displayed is 2.5.

Coastal Water Temperatures

Place Temperature

Stations

Nearby Weather Stations

Station Location Temp. Windchill Dew Point Humidity Wind Precip. Elev Updated Type